Погода Клишинона 2 недели

Минская область, Белоруссия

23 мая-05 июня
  • 23мая
    Сегодня
    +12°
    +24°
    Пасмурно, дожди с грозами
    ВремяПогодаТемператураВлажностьДавлениеВетер, м/сВероятность осадков
    00:00Практически безоблачно+15°C92 %748 мм2.7 м/с4 %
    03:00Ясно и безоблачно+14°C93 %748 мм3.0 м/с2 %
    06:00Ясно и безоблачно+14°C94 %749 мм3.7 м/с2 %
    09:00Ясно и безоблачно+19°C80 %750 мм3.7 м/с2 %
    12:00Практически безоблачно+22°C63 %750 мм4.7 м/с3 %
    15:00Пасмурно, дожди с грозами+23°C54 %751 мм4.5 м/с25 %
    18:00Облачно с прояснениями+23°C62 %751 мм3.8 м/с42 %
    21:00Небольшая облачность+19°C64 %751 мм3.3 м/с2 %
  • 24мая
    Пятница
    +11°
    +23°
    Ясно и безоблачно
    ВремяПогодаТемператураВлажностьДавлениеВетер, м/сВероятность осадков
    00:00Ясно и безоблачно+16°C57 %752 мм4.9 м/с2 %
    03:00Ясно и безоблачно+14°C60 %753 мм4.4 м/с2 %
    06:00Ясно и безоблачно+12°C65 %754 мм4.4 м/с1 %
    09:00Ясно и безоблачно+16°C57 %754 мм4.2 м/с1 %
    12:00Ясно и безоблачно+20°C49 %754 мм4.0 м/с2 %
    15:00Ясно и безоблачно+22°C44 %754 мм4.0 м/с2 %
    18:00Ясно и безоблачно+22°C46 %754 мм4.0 м/с2 %
    21:00Ясно и безоблачно+18°C58 %753 мм3.1 м/с2 %
  • 25мая
    Суббота
    +11°
    +25°
    Облачно с прояснениями
    ВремяПогодаТемператураВлажностьДавлениеВетер, м/сВероятность осадков
    00:00Практически безоблачно+14°C65 %754 мм3.3 м/с2 %
    03:00Небольшая облачность+12°C72 %753 мм3.0 м/с2 %
    06:00Облачно с прояснениями+12°C75 %753 мм3.3 м/с2 %
    09:00Облачно с прояснениями+17°C61 %753 мм3.3 м/с2 %
    12:00Ясно и безоблачно+22°C49 %753 мм3.0 м/с2 %
    15:00Облачно с прояснениями+24°C40 %752 мм3.3 м/с5 %
    18:00Облачно с прояснениями+24°C41 %751 мм2.6 м/с9 %
    21:00Облачно с прояснениями+19°C58 %751 мм3.3 м/с3 %
  • 26мая
    Воскресенье
    +13°
    +25°
    Практически безоблачно
    ВремяПогодаТемператураВлажностьДавлениеВетер, м/сВероятность осадков
    00:00Ясно и безоблачно+15°C61 %751 мм2.9 м/с4 %
    03:00Ясно и безоблачно+13°C67 %751 мм2.3 м/с4 %
    06:00Ясно и безоблачно+12°C71 %751 мм2.1 м/с3 %
    09:00Ясно и безоблачно+18°C57 %751 мм1.6 м/с4 %
    12:00Ясно и безоблачно+22°C37 %751 мм2.0 м/с3 %
    15:00Практически безоблачно+24°C35 %751 мм1.4 м/с3 %
    18:00Ясно и безоблачно+25°C37 %750 мм1.0 м/с7 %
    21:00Ясно и безоблачно+18°C65 %751 мм2.1 м/с4 %
  • 27мая
    Понедельник
    +13°
    +26°
    Практически безоблачно
    ВремяПогодаТемператураВлажностьДавлениеВетер, м/сВероятность осадков
    00:00Ясно и безоблачно+15°C75 %751 мм2.3 м/с2 %
    03:00Ясно и безоблачно+15°C76 %751 мм0.5 м/с2 %
    06:00Ясно и безоблачно+13°C85 %752 мм1.2 м/с2 %
    09:00Небольшая облачность+20°C57 %752 мм1.4 м/с2 %
    12:00Практически безоблачно+24°C38 %752 мм1.9 м/с9 %
    15:00Практически безоблачно+25°C38 %752 мм2.2 м/с16 %
    18:00Ясно и безоблачно+25°C42 %751 мм1.6 м/с33 %
    21:00Ясно и безоблачно+20°C65 %750 мм2.0 м/с9 %
Мы используем cookies
Соглашаюсь